sensor_id;sensor_type;location;lat;lon;timestamp;P1;durP1;ratioP1;P2;durP2;ratioP2
34928;SDS011;21133;48.048;7.724;2023-09-08T00:00:43;4.67;;;4.57;;
34928;SDS011;21133;48.048;7.724;2023-09-08T00:03:09;7.53;;;5.33;;
34928;SDS011;21133;48.048;7.724;2023-09-08T00:05:35;6.10;;;5.27;;
34928;SDS011;21133;48.048;7.724;2023-09-08T00:08:01;5.77;;;5.37;;
34928;SDS011;21133;48.048;7.724;2023-09-08T00:10:27;5.97;;;5.67;;
34928;SDS011;21133;48.048;7.724;2023-09-08T00:12:53;5.30;;;5.10;;
34928;SDS011;21133;48.048;7.724;2023-09-08T00:15:19;6.47;;;6.10;;
34928;SDS011;21133;48.048;7.724;2023-09-08T00:17:45;7.00;;;6.40;;
34928;SDS011;21133;48.048;7.724;2023-09-08T00:20:12;6.03;;;5.50;;
34928;SDS011;21133;48.048;7.724;2023-09-08T00:22:38;6.43;;;5.90;;
34928;SDS011;21133;48.048;7.724;2023-09-08T00:25:05;11.70;;;5.73;;
34928;SDS011;21133;48.048;7.724;2023-09-08T00:27:31;5.87;;;5.37;;
34928;SDS011;21133;48.048;7.724;2023-09-08T00:29:57;7.43;;;6.80;;
34928;SDS011;21133;48.048;7.724;2023-09-08T00:32:23;5.53;;;5.40;;
34928;SDS011;21133;48.048;7.724;2023-09-08T00:34:49;5.87;;;5.57;;
34928;SDS011;21133;48.048;7.724;2023-09-08T00:37:15;6.40;;;5.90;;
34928;SDS011;21133;48.048;7.724;2023-09-08T00:39:41;7.40;;;6.90;;
34928;SDS011;21133;48.048;7.724;2023-09-08T00:42:07;5.63;;;5.43;;
34928;SDS011;21133;48.048;7.724;2023-09-08T00:44:33;7.83;;;5.90;;
34928;SDS011;21133;48.048;7.724;2023-09-08T00:46:59;5.60;;;5.40;;
34928;SDS011;21133;48.048;7.724;2023-09-08T00:49:25;6.90;;;6.03;;
34928;SDS011;21133;48.048;7.724;2023-09-08T00:51:51;6.10;;;5.77;;
34928;SDS011;21133;48.048;7.724;2023-09-08T00:54:17;6.97;;;6.33;;
34928;SDS011;21133;48.048;7.724;2023-09-08T00:56:43;6.20;;;5.67;;
34928;SDS011;21133;48.048;7.724;2023-09-08T00:59:10;5.13;;;4.93;;
34928;SDS011;21133;48.048;7.724;2023-09-08T01:01:36;5.70;;;4.90;;
34928;SDS011;21133;48.048;7.724;2023-09-08T01:04:02;5.90;;;5.40;;
34928;SDS011;21133;48.048;7.724;2023-09-08T01:06:28;6.90;;;6.40;;
34928;SDS011;21133;48.048;7.724;2023-09-08T01:08:54;5.60;;;5.30;;
34928;SDS011;21133;48.048;7.724;2023-09-08T01:14:25;4.80;;;4.40;;
34928;SDS011;21133;48.048;7.724;2023-09-08T01:16:52;6.40;;;4.80;;
34928;SDS011;21133;48.048;7.724;2023-09-08T01:19:18;10.30;;;4.43;;
34928;SDS011;21133;48.048;7.724;2023-09-08T01:24:29;5.27;;;4.93;;
34928;SDS011;21133;48.048;7.724;2023-09-08T01:27:02;5.93;;;5.53;;
34928;SDS011;21133;48.048;7.724;2023-09-08T01:29:28;5.17;;;4.97;;
34928;SDS011;21133;48.048;7.724;2023-09-08T01:31:55;5.90;;;5.50;;
34928;SDS011;21133;48.048;7.724;2023-09-08T01:34:21;5.37;;;4.93;;
34928;SDS011;21133;48.048;7.724;2023-09-08T01:36:47;6.90;;;5.70;;
34928;SDS011;21133;48.048;7.724;2023-09-08T01:39:13;7.80;;;4.90;;
34928;SDS011;21133;48.048;7.724;2023-09-08T01:41:39;5.07;;;4.87;;
34928;SDS011;21133;48.048;7.724;2023-09-08T01:44:05;4.83;;;4.63;;
34928;SDS011;21133;48.048;7.724;2023-09-08T01:46:35;4.40;;;4.20;;
34928;SDS011;21133;48.048;7.724;2023-09-08T01:49:01;5.33;;;4.87;;
34928;SDS011;21133;48.048;7.724;2023-09-08T01:51:27;5.40;;;5.07;;
34928;SDS011;21133;48.048;7.724;2023-09-08T01:53:53;10.40;;;4.30;;
34928;SDS011;21133;48.048;7.724;2023-09-08T01:56:19;8.33;;;5.23;;
34928;SDS011;21133;48.048;7.724;2023-09-08T01:58:44;5.47;;;5.03;;
34928;SDS011;21133;48.048;7.724;2023-09-08T02:01:10;4.77;;;4.57;;
34928;SDS011;21133;48.048;7.724;2023-09-08T02:03:36;5.10;;;4.67;;
34928;SDS011;21133;48.048;7.724;2023-09-08T02:06:02;5.27;;;4.93;;
34928;SDS011;21133;48.048;7.724;2023-09-08T02:08:28;3.90;;;3.80;;
34928;SDS011;21133;48.048;7.724;2023-09-08T02:10:54;4.03;;;3.93;;
34928;SDS011;21133;48.048;7.724;2023-09-08T02:13:20;4.77;;;4.47;;
34928;SDS011;21133;48.048;7.724;2023-09-08T02:15:46;9.20;;;4.33;;
34928;SDS011;21133;48.048;7.724;2023-09-08T02:18:12;5.57;;;5.23;;
34928;SDS011;21133;48.048;7.724;2023-09-08T02:20:38;5.50;;;5.00;;
34928;SDS011;21133;48.048;7.724;2023-09-08T02:23:05;6.90;;;6.00;;
34928;SDS011;21133;48.048;7.724;2023-09-08T02:25:31;6.50;;;6.00;;
34928;SDS011;21133;48.048;7.724;2023-09-08T02:27:57;5.93;;;5.67;;
34928;SDS011;21133;48.048;7.724;2023-09-08T02:30:23;6.23;;;5.53;;
34928;SDS011;21133;48.048;7.724;2023-09-08T02:32:49;5.90;;;5.40;;
34928;SDS011;21133;48.048;7.724;2023-09-08T02:35:15;5.80;;;5.33;;
34928;SDS011;21133;48.048;7.724;2023-09-08T02:37:42;5.90;;;5.40;;
34928;SDS011;21133;48.048;7.724;2023-09-08T02:40:07;6.53;;;5.40;;
34928;SDS011;21133;48.048;7.724;2023-09-08T02:42:34;5.40;;;4.90;;
34928;SDS011;21133;48.048;7.724;2023-09-08T02:45:00;6.93;;;5.90;;
34928;SDS011;21133;48.048;7.724;2023-09-08T02:47:26;5.17;;;4.97;;
34928;SDS011;21133;48.048;7.724;2023-09-08T02:49:52;5.47;;;4.93;;
34928;SDS011;21133;48.048;7.724;2023-09-08T02:52:18;4.87;;;4.77;;
34928;SDS011;21133;48.048;7.724;2023-09-08T02:54:44;4.70;;;4.50;;
34928;SDS011;21133;48.048;7.724;2023-09-08T02:57:10;4.90;;;4.60;;
34928;SDS011;21133;48.048;7.724;2023-09-08T02:59:36;4.90;;;4.60;;
34928;SDS011;21133;48.048;7.724;2023-09-08T03:02:02;4.73;;;4.63;;
34928;SDS011;21133;48.048;7.724;2023-09-08T03:04:28;6.03;;;5.10;;
34928;SDS011;21133;48.048;7.724;2023-09-08T03:06:54;4.80;;;4.60;;
34928;SDS011;21133;48.048;7.724;2023-09-08T03:09:20;4.43;;;4.20;;
34928;SDS011;21133;48.048;7.724;2023-09-08T03:11:46;6.60;;;3.90;;
34928;SDS011;21133;48.048;7.724;2023-09-08T03:14:12;4.73;;;3.90;;
34928;SDS011;21133;48.048;7.724;2023-09-08T03:16:38;5.83;;;3.50;;
34928;SDS011;21133;48.048;7.724;2023-09-08T03:19:04;4.60;;;4.40;;
34928;SDS011;21133;48.048;7.724;2023-09-08T03:21:30;4.67;;;4.27;;
34928;SDS011;21133;48.048;7.724;2023-09-08T03:23:56;4.80;;;4.40;;
34928;SDS011;21133;48.048;7.724;2023-09-08T03:26:22;4.20;;;3.80;;
34928;SDS011;21133;48.048;7.724;2023-09-08T03:28:48;4.33;;;4.23;;
34928;SDS011;21133;48.048;7.724;2023-09-08T03:31:14;4.80;;;4.60;;
34928;SDS011;21133;48.048;7.724;2023-09-08T03:33:40;4.27;;;4.07;;
34928;SDS011;21133;48.048;7.724;2023-09-08T03:36:07;5.83;;;4.67;;
34928;SDS011;21133;48.048;7.724;2023-09-08T03:38:33;5.00;;;4.80;;
34928;SDS011;21133;48.048;7.724;2023-09-08T03:41:01;4.57;;;4.27;;
34928;SDS011;21133;48.048;7.724;2023-09-08T03:43:28;7.33;;;6.70;;
34928;SDS011;21133;48.048;7.724;2023-09-08T03:45:54;15.17;;;5.03;;
34928;SDS011;21133;48.048;7.724;2023-09-08T03:48:19;5.27;;;4.37;;
34928;SDS011;21133;48.048;7.724;2023-09-08T03:50:45;14.37;;;5.20;;
34928;SDS011;21133;48.048;7.724;2023-09-08T03:53:12;6.27;;;5.87;;
34928;SDS011;21133;48.048;7.724;2023-09-08T03:55:38;5.37;;;5.17;;
34928;SDS011;21133;48.048;7.724;2023-09-08T03:58:04;12.30;;;6.57;;
34928;SDS011;21133;48.048;7.724;2023-09-08T04:00:30;6.33;;;5.97;;
34928;SDS011;21133;48.048;7.724;2023-09-08T04:02:56;6.00;;;5.50;;
34928;SDS011;21133;48.048;7.724;2023-09-08T04:05:22;6.20;;;5.80;;
34928;SDS011;21133;48.048;7.724;2023-09-08T04:07:48;6.93;;;6.20;;
34928;SDS011;21133;48.048;7.724;2023-09-08T04:10:14;8.63;;;6.53;;
34928;SDS011;21133;48.048;7.724;2023-09-08T04:12:40;7.37;;;6.87;;
34928;SDS011;21133;48.048;7.724;2023-09-08T04:15:06;6.83;;;6.33;;
34928;SDS011;21133;48.048;7.724;2023-09-08T04:17:32;12.73;;;7.07;;
34928;SDS011;21133;48.048;7.724;2023-09-08T04:19:58;7.03;;;5.80;;
34928;SDS011;21133;48.048;7.724;2023-09-08T04:22:24;7.20;;;6.63;;
34928;SDS011;21133;48.048;7.724;2023-09-08T04:24:50;11.13;;;6.90;;
34928;SDS011;21133;48.048;7.724;2023-09-08T04:27:18;6.33;;;5.93;;
34928;SDS011;21133;48.048;7.724;2023-09-08T04:29:44;7.73;;;7.10;;
34928;SDS011;21133;48.048;7.724;2023-09-08T04:32:10;11.93;;;5.80;;
34928;SDS011;21133;48.048;7.724;2023-09-08T04:34:37;12.03;;;8.17;;
34928;SDS011;21133;48.048;7.724;2023-09-08T04:37:03;7.60;;;5.43;;
34928;SDS011;21133;48.048;7.724;2023-09-08T04:39:29;7.80;;;7.30;;
34928;SDS011;21133;48.048;7.724;2023-09-08T04:41:55;6.63;;;6.00;;
34928;SDS011;21133;48.048;7.724;2023-09-08T04:44:21;7.53;;;7.03;;
34928;SDS011;21133;48.048;7.724;2023-09-08T04:46:47;16.73;;;6.33;;
34928;SDS011;21133;48.048;7.724;2023-09-08T04:49:13;8.87;;;7.67;;
34928;SDS011;21133;48.048;7.724;2023-09-08T04:51:39;6.20;;;5.33;;
34928;SDS011;21133;48.048;7.724;2023-09-08T04:54:06;8.60;;;6.53;;
34928;SDS011;21133;48.048;7.724;2023-09-08T04:56:32;16.33;;;6.60;;
34928;SDS011;21133;48.048;7.724;2023-09-08T04:58:58;7.93;;;7.23;;
34928;SDS011;21133;48.048;7.724;2023-09-08T05:01:25;6.47;;;5.00;;
34928;SDS011;21133;48.048;7.724;2023-09-08T05:03:52;6.77;;;6.37;;
34928;SDS011;21133;48.048;7.724;2023-09-08T05:06:18;6.40;;;5.90;;
34928;SDS011;21133;48.048;7.724;2023-09-08T05:08:44;7.83;;;7.00;;
34928;SDS011;21133;48.048;7.724;2023-09-08T05:11:10;7.47;;;6.73;;
34928;SDS011;21133;48.048;7.724;2023-09-08T05:13:36;12.83;;;6.70;;
34928;SDS011;21133;48.048;7.724;2023-09-08T05:16:02;6.97;;;6.23;;
34928;SDS011;21133;48.048;7.724;2023-09-08T05:18:36;8.13;;;7.73;;
34928;SDS011;21133;48.048;7.724;2023-09-08T05:21:01;7.53;;;6.83;;
34928;SDS011;21133;48.048;7.724;2023-09-08T05:23:27;11.00;;;7.20;;
34928;SDS011;21133;48.048;7.724;2023-09-08T05:25:53;7.90;;;7.30;;
34928;SDS011;21133;48.048;7.724;2023-09-08T05:28:19;8.20;;;7.50;;
34928;SDS011;21133;48.048;7.724;2023-09-08T05:30:45;7.67;;;6.97;;
34928;SDS011;21133;48.048;7.724;2023-09-08T05:33:11;6.53;;;6.13;;
34928;SDS011;21133;48.048;7.724;2023-09-08T05:35:37;8.90;;;6.70;;
34928;SDS011;21133;48.048;7.724;2023-09-08T05:38:03;15.07;;;5.50;;
34928;SDS011;21133;48.048;7.724;2023-09-08T05:40:30;6.03;;;5.60;;
34928;SDS011;21133;48.048;7.724;2023-09-08T05:42:56;5.87;;;5.57;;
34928;SDS011;21133;48.048;7.724;2023-09-08T05:45:22;5.87;;;5.47;;
34928;SDS011;21133;48.048;7.724;2023-09-08T05:47:48;6.00;;;5.60;;
34928;SDS011;21133;48.048;7.724;2023-09-08T05:50:15;5.90;;;5.60;;
34928;SDS011;21133;48.048;7.724;2023-09-08T05:52:41;5.90;;;5.60;;
34928;SDS011;21133;48.048;7.724;2023-09-08T05:55:07;7.50;;;6.40;;
34928;SDS011;21133;48.048;7.724;2023-09-08T05:57:33;6.80;;;6.37;;
34928;SDS011;21133;48.048;7.724;2023-09-08T05:59:59;6.93;;;6.43;;
34928;SDS011;21133;48.048;7.724;2023-09-08T06:02:25;6.53;;;6.23;;
34928;SDS011;21133;48.048;7.724;2023-09-08T06:04:51;9.30;;;7.00;;
34928;SDS011;21133;48.048;7.724;2023-09-08T06:07:17;6.47;;;6.17;;
34928;SDS011;21133;48.048;7.724;2023-09-08T06:09:43;8.67;;;7.00;;
34928;SDS011;21133;48.048;7.724;2023-09-08T06:12:09;8.47;;;7.87;;
34928;SDS011;21133;48.048;7.724;2023-09-08T06:14:35;15.03;;;6.63;;
34928;SDS011;21133;48.048;7.724;2023-09-08T06:17:01;6.70;;;6.20;;
34928;SDS011;21133;48.048;7.724;2023-09-08T06:19:27;8.40;;;7.70;;
34928;SDS011;21133;48.048;7.724;2023-09-08T06:21:53;9.07;;;8.23;;
34928;SDS011;21133;48.048;7.724;2023-09-08T06:24:19;10.00;;;9.00;;
34928;SDS011;21133;48.048;7.724;2023-09-08T06:26:45;9.10;;;8.40;;
34928;SDS011;21133;48.048;7.724;2023-09-08T06:29:11;8.60;;;7.90;;
34928;SDS011;21133;48.048;7.724;2023-09-08T06:31:40;10.23;;;8.27;;
34928;SDS011;21133;48.048;7.724;2023-09-08T06:34:06;8.00;;;7.47;;
34928;SDS011;21133;48.048;7.724;2023-09-08T06:36:32;12.80;;;9.10;;
34928;SDS011;21133;48.048;7.724;2023-09-08T06:38:59;9.90;;;9.00;;
34928;SDS011;21133;48.048;7.724;2023-09-08T06:41:25;9.27;;;8.30;;
34928;SDS011;21133;48.048;7.724;2023-09-08T06:43:52;8.20;;;7.70;;
34928;SDS011;21133;48.048;7.724;2023-09-08T06:46:19;8.50;;;7.70;;
34928;SDS011;21133;48.048;7.724;2023-09-08T06:48:45;10.30;;;7.93;;
34928;SDS011;21133;48.048;7.724;2023-09-08T06:51:11;15.97;;;8.87;;
34928;SDS011;21133;48.048;7.724;2023-09-08T06:53:37;8.67;;;7.93;;
34928;SDS011;21133;48.048;7.724;2023-09-08T06:56:03;7.60;;;7.20;;
34928;SDS011;21133;48.048;7.724;2023-09-08T06:58:29;8.60;;;8.00;;
34928;SDS011;21133;48.048;7.724;2023-09-08T07:00:55;8.10;;;7.50;;
34928;SDS011;21133;48.048;7.724;2023-09-08T07:03:21;8.93;;;8.13;;
34928;SDS011;21133;48.048;7.724;2023-09-08T07:05:51;14.73;;;8.13;;
34928;SDS011;21133;48.048;7.724;2023-09-08T07:08:17;8.50;;;7.70;;
34928;SDS011;21133;48.048;7.724;2023-09-08T07:10:43;8.00;;;7.60;;
34928;SDS011;21133;48.048;7.724;2023-09-08T07:13:09;8.63;;;7.33;;
34928;SDS011;21133;48.048;7.724;2023-09-08T07:15:35;8.70;;;8.10;;
34928;SDS011;21133;48.048;7.724;2023-09-08T07:18:01;10.20;;;8.20;;
34928;SDS011;21133;48.048;7.724;2023-09-08T07:20:27;10.63;;;8.30;;
34928;SDS011;21133;48.048;7.724;2023-09-08T07:22:53;11.43;;;7.70;;
34928;SDS011;21133;48.048;7.724;2023-09-08T07:25:19;16.67;;;7.97;;
34928;SDS011;21133;48.048;7.724;2023-09-08T07:27:45;24.43;;;7.77;;
34928;SDS011;21133;48.048;7.724;2023-09-08T07:30:11;16.73;;;7.70;;
34928;SDS011;21133;48.048;7.724;2023-09-08T07:32:37;22.67;;;7.50;;
34928;SDS011;21133;48.048;7.724;2023-09-08T07:35:04;19.90;;;8.50;;
34928;SDS011;21133;48.048;7.724;2023-09-08T07:37:30;23.53;;;8.97;;
34928;SDS011;21133;48.048;7.724;2023-09-08T07:39:56;23.20;;;8.00;;
34928;SDS011;21133;48.048;7.724;2023-09-08T07:42:22;20.67;;;7.73;;
34928;SDS011;21133;48.048;7.724;2023-09-08T07:44:50;23.87;;;8.33;;
34928;SDS011;21133;48.048;7.724;2023-09-08T07:47:16;8.20;;;7.10;;
34928;SDS011;21133;48.048;7.724;2023-09-08T07:49:44;8.57;;;7.80;;
34928;SDS011;21133;48.048;7.724;2023-09-08T07:52:11;11.70;;;7.95;;
34928;SDS011;21133;48.048;7.724;2023-09-08T07:54:37;14.07;;;7.90;;
34928;SDS011;21133;48.048;7.724;2023-09-08T07:57:03;9.63;;;7.67;;
34928;SDS011;21133;48.048;7.724;2023-09-08T07:59:29;6.33;;;5.73;;
34928;SDS011;21133;48.048;7.724;2023-09-08T08:01:55;9.50;;;6.53;;
34928;SDS011;21133;48.048;7.724;2023-09-08T08:04:21;7.83;;;7.13;;
34928;SDS011;21133;48.048;7.724;2023-09-08T08:06:48;17.63;;;8.03;;
34928;SDS011;21133;48.048;7.724;2023-09-08T08:09:14;11.17;;;7.47;;
34928;SDS011;21133;48.048;7.724;2023-09-08T08:11:40;7.90;;;7.17;;
34928;SDS011;21133;48.048;7.724;2023-09-08T08:14:06;10.13;;;7.60;;
34928;SDS011;21133;48.048;7.724;2023-09-08T08:16:32;11.43;;;7.00;;
34928;SDS011;21133;48.048;7.724;2023-09-08T08:18:59;20.60;;;10.23;;
34928;SDS011;21133;48.048;7.724;2023-09-08T08:21:26;7.87;;;7.20;;
34928;SDS011;21133;48.048;7.724;2023-09-08T08:23:52;6.73;;;6.13;;
34928;SDS011;21133;48.048;7.724;2023-09-08T08:26:18;15.43;;;7.60;;
34928;SDS011;21133;48.048;7.724;2023-09-08T08:28:44;6.60;;;6.13;;
34928;SDS011;21133;48.048;7.724;2023-09-08T08:31:09;8.27;;;6.43;;
34928;SDS011;21133;48.048;7.724;2023-09-08T08:33:35;6.87;;;6.47;;
34928;SDS011;21133;48.048;7.724;2023-09-08T08:36:01;7.60;;;7.00;;
34928;SDS011;21133;48.048;7.724;2023-09-08T08:38:28;6.80;;;6.40;;
34928;SDS011;21133;48.048;7.724;2023-09-08T08:40:54;8.50;;;6.00;;
34928;SDS011;21133;48.048;7.724;2023-09-08T08:43:21;7.50;;;7.10;;
34928;SDS011;21133;48.048;7.724;2023-09-08T08:45:47;6.83;;;6.50;;
34928;SDS011;21133;48.048;7.724;2023-09-08T08:48:14;7.03;;;6.43;;
34928;SDS011;21133;48.048;7.724;2023-09-08T08:50:41;7.60;;;6.90;;
34928;SDS011;21133;48.048;7.724;2023-09-08T08:53:08;12.93;;;6.23;;
34928;SDS011;21133;48.048;7.724;2023-09-08T08:55:34;7.23;;;6.73;;
34928;SDS011;21133;48.048;7.724;2023-09-08T08:58:04;9.60;;;6.77;;
34928;SDS011;21133;48.048;7.724;2023-09-08T09:00:31;7.10;;;6.57;;
34928;SDS011;21133;48.048;7.724;2023-09-08T09:02:59;7.60;;;5.63;;
34928;SDS011;21133;48.048;7.724;2023-09-08T09:05:25;6.47;;;5.87;;
34928;SDS011;21133;48.048;7.724;2023-09-08T09:07:52;9.00;;;6.03;;
34928;SDS011;21133;48.048;7.724;2023-09-08T09:10:18;5.80;;;5.17;;
34928;SDS011;21133;48.048;7.724;2023-09-08T09:12:44;6.70;;;6.30;;
34928;SDS011;21133;48.048;7.724;2023-09-08T09:15:09;7.27;;;6.53;;
34928;SDS011;21133;48.048;7.724;2023-09-08T09:17:36;13.93;;;6.60;;
34928;SDS011;21133;48.048;7.724;2023-09-08T09:20:16;6.93;;;6.30;;
34928;SDS011;21133;48.048;7.724;2023-09-08T09:22:42;6.00;;;5.80;;
34928;SDS011;21133;48.048;7.724;2023-09-08T09:25:08;7.03;;;6.57;;
34928;SDS011;21133;48.048;7.724;2023-09-08T09:27:35;6.73;;;6.23;;
34928;SDS011;21133;48.048;7.724;2023-09-08T09:30:06;10.43;;;6.23;;
34928;SDS011;21133;48.048;7.724;2023-09-08T09:32:33;5.70;;;5.10;;
34928;SDS011;21133;48.048;7.724;2023-09-08T09:35:00;20.43;;;6.53;;
34928;SDS011;21133;48.048;7.724;2023-09-08T09:37:26;6.13;;;5.63;;
34928;SDS011;21133;48.048;7.724;2023-09-08T09:39:53;12.60;;;5.60;;
34928;SDS011;21133;48.048;7.724;2023-09-08T09:42:19;7.43;;;6.70;;
34928;SDS011;21133;48.048;7.724;2023-09-08T09:44:48;12.63;;;5.50;;
34928;SDS011;21133;48.048;7.724;2023-09-08T09:47:16;6.60;;;6.00;;
34928;SDS011;21133;48.048;7.724;2023-09-08T09:49:42;11.20;;;6.10;;
34928;SDS011;21133;48.048;7.724;2023-09-08T09:52:09;9.93;;;6.63;;
34928;SDS011;21133;48.048;7.724;2023-09-08T09:54:38;8.37;;;6.93;;
34928;SDS011;21133;48.048;7.724;2023-09-08T09:57:04;8.93;;;7.10;;
34928;SDS011;21133;48.048;7.724;2023-09-08T09:59:30;6.10;;;5.60;;
34928;SDS011;21133;48.048;7.724;2023-09-08T10:01:56;6.80;;;6.40;;
34928;SDS011;21133;48.048;7.724;2023-09-08T10:04:23;9.43;;;5.57;;
34928;SDS011;21133;48.048;7.724;2023-09-08T10:06:49;6.73;;;5.50;;
34928;SDS011;21133;48.048;7.724;2023-09-08T10:09:17;8.87;;;6.40;;
34928;SDS011;21133;48.048;7.724;2023-09-08T10:11:48;7.03;;;6.50;;
34928;SDS011;21133;48.048;7.724;2023-09-08T10:14:14;6.90;;;6.30;;
34928;SDS011;21133;48.048;7.724;2023-09-08T10:16:41;5.00;;;4.80;;
34928;SDS011;21133;48.048;7.724;2023-09-08T10:19:09;5.80;;;5.40;;
34928;SDS011;21133;48.048;7.724;2023-09-08T10:21:44;6.20;;;5.77;;
34928;SDS011;21133;48.048;7.724;2023-09-08T10:24:14;5.80;;;5.37;;
34928;SDS011;21133;48.048;7.724;2023-09-08T10:26:43;5.87;;;5.47;;
34928;SDS011;21133;48.048;7.724;2023-09-08T10:29:09;6.20;;;5.90;;
34928;SDS011;21133;48.048;7.724;2023-09-08T10:31:35;7.00;;;6.40;;
34928;SDS011;21133;48.048;7.724;2023-09-08T10:34:02;11.67;;;6.70;;
34928;SDS011;21133;48.048;7.724;2023-09-08T10:36:28;7.33;;;6.40;;
34928;SDS011;21133;48.048;7.724;2023-09-08T10:38:55;6.27;;;5.40;;
34928;SDS011;21133;48.048;7.724;2023-09-08T10:41:41;12.60;;;6.30;;
34928;SDS011;21133;48.048;7.724;2023-09-08T10:44:09;6.80;;;5.30;;
34928;SDS011;21133;48.048;7.724;2023-09-08T10:46:40;4.90;;;4.70;;
34928;SDS011;21133;48.048;7.724;2023-09-08T10:49:06;5.00;;;4.80;;
34928;SDS011;21133;48.048;7.724;2023-09-08T10:51:33;6.30;;;5.00;;
34928;SDS011;21133;48.048;7.724;2023-09-08T10:53:59;6.40;;;5.10;;
34928;SDS011;21133;48.048;7.724;2023-09-08T10:59:10;5.43;;;5.27;;
34928;SDS011;21133;48.048;7.724;2023-09-08T11:01:36;5.90;;;4.70;;
34928;SDS011;21133;48.048;7.724;2023-09-08T11:04:02;4.97;;;4.60;;
34928;SDS011;21133;48.048;7.724;2023-09-08T11:06:34;5.40;;;4.93;;
34928;SDS011;21133;48.048;7.724;2023-09-08T11:09:07;4.93;;;4.73;;
34928;SDS011;21133;48.048;7.724;2023-09-08T11:11:33;8.90;;;5.40;;
34928;SDS011;21133;48.048;7.724;2023-09-08T11:13:59;5.17;;;4.83;;
34928;SDS011;21133;48.048;7.724;2023-09-08T11:16:25;5.17;;;4.67;;
34928;SDS011;21133;48.048;7.724;2023-09-08T11:18:56;5.20;;;4.80;;
34928;SDS011;21133;48.048;7.724;2023-09-08T11:21:22;5.03;;;4.50;;
34928;SDS011;21133;48.048;7.724;2023-09-08T11:23:48;5.10;;;4.73;;
34928;SDS011;21133;48.048;7.724;2023-09-08T11:26:14;4.50;;;4.30;;
34928;SDS011;21133;48.048;7.724;2023-09-08T11:28:40;4.70;;;4.50;;
34928;SDS011;21133;48.048;7.724;2023-09-08T11:31:07;5.13;;;4.57;;
34928;SDS011;21133;48.048;7.724;2023-09-08T11:33:36;6.83;;;4.80;;
34928;SDS011;21133;48.048;7.724;2023-09-08T11:36:10;4.90;;;4.50;;
34928;SDS011;21133;48.048;7.724;2023-09-08T11:38:37;10.00;;;5.33;;
34928;SDS011;21133;48.048;7.724;2023-09-08T11:41:03;5.10;;;4.63;;
34928;SDS011;21133;48.048;7.724;2023-09-08T11:43:29;4.67;;;4.37;;
34928;SDS011;21133;48.048;7.724;2023-09-08T11:45:58;5.07;;;4.87;;
34928;SDS011;21133;48.048;7.724;2023-09-08T11:48:24;7.90;;;4.67;;
34928;SDS011;21133;48.048;7.724;2023-09-08T11:50:54;4.90;;;4.60;;
34928;SDS011;21133;48.048;7.724;2023-09-08T11:53:20;5.47;;;5.07;;
34928;SDS011;21133;48.048;7.724;2023-09-08T11:55:46;5.20;;;5.00;;
34928;SDS011;21133;48.048;7.724;2023-09-08T11:58:13;4.83;;;4.27;;
34928;SDS011;21133;48.048;7.724;2023-09-08T12:00:39;6.23;;;4.73;;
34928;SDS011;21133;48.048;7.724;2023-09-08T12:03:12;4.57;;;4.37;;
34928;SDS011;21133;48.048;7.724;2023-09-08T12:05:40;3.87;;;3.67;;
34928;SDS011;21133;48.048;7.724;2023-09-08T12:08:07;10.10;;;3.70;;
34928;SDS011;21133;48.048;7.724;2023-09-08T12:10:39;4.63;;;3.90;;
34928;SDS011;21133;48.048;7.724;2023-09-08T12:13:05;10.33;;;4.50;;
34928;SDS011;21133;48.048;7.724;2023-09-08T12:17:58;7.73;;;3.73;;
34928;SDS011;21133;48.048;7.724;2023-09-08T12:20:24;4.53;;;4.13;;
34928;SDS011;21133;48.048;7.724;2023-09-08T12:22:50;4.23;;;3.93;;
34928;SDS011;21133;48.048;7.724;2023-09-08T12:25:17;3.80;;;3.70;;
34928;SDS011;21133;48.048;7.724;2023-09-08T12:27:43;15.83;;;6.10;;
34928;SDS011;21133;48.048;7.724;2023-09-08T12:30:15;3.73;;;3.63;;
34928;SDS011;21133;48.048;7.724;2023-09-08T12:32:41;3.73;;;3.63;;
34928;SDS011;21133;48.048;7.724;2023-09-08T12:35:08;11.40;;;4.20;;
34928;SDS011;21133;48.048;7.724;2023-09-08T12:37:34;4.97;;;4.57;;
34928;SDS011;21133;48.048;7.724;2023-09-08T12:40:01;6.20;;;4.03;;
34928;SDS011;21133;48.048;7.724;2023-09-08T12:42:27;6.43;;;3.67;;
34928;SDS011;21133;48.048;7.724;2023-09-08T12:44:54;9.70;;;3.70;;
34928;SDS011;21133;48.048;7.724;2023-09-08T12:47:20;4.60;;;4.20;;
34928;SDS011;21133;48.048;7.724;2023-09-08T12:49:46;3.90;;;3.60;;
34928;SDS011;21133;48.048;7.724;2023-09-08T12:52:12;3.10;;;2.90;;
34928;SDS011;21133;48.048;7.724;2023-09-08T12:54:38;4.10;;;3.73;;
34928;SDS011;21133;48.048;7.724;2023-09-08T12:57:04;3.97;;;3.77;;
34928;SDS011;21133;48.048;7.724;2023-09-08T12:59:30;4.47;;;4.10;;
34928;SDS011;21133;48.048;7.724;2023-09-08T13:01:56;4.33;;;4.03;;
34928;SDS011;21133;48.048;7.724;2023-09-08T13:04:23;4.63;;;4.43;;
34928;SDS011;21133;48.048;7.724;2023-09-08T13:06:49;4.87;;;4.57;;
34928;SDS011;21133;48.048;7.724;2023-09-08T13:09:15;5.10;;;4.10;;
34928;SDS011;21133;48.048;7.724;2023-09-08T13:11:42;7.10;;;3.87;;
34928;SDS011;21133;48.048;7.724;2023-09-08T13:14:08;4.07;;;3.83;;
34928;SDS011;21133;48.048;7.724;2023-09-08T13:16:34;7.10;;;4.20;;
34928;SDS011;21133;48.048;7.724;2023-09-08T13:19:00;4.13;;;3.97;;
34928;SDS011;21133;48.048;7.724;2023-09-08T13:21:26;5.03;;;4.17;;
34928;SDS011;21133;48.048;7.724;2023-09-08T13:23:52;6.17;;;3.90;;
34928;SDS011;21133;48.048;7.724;2023-09-08T13:26:18;4.70;;;4.30;;
34928;SDS011;21133;48.048;7.724;2023-09-08T13:28:44;4.83;;;4.43;;
34928;SDS011;21133;48.048;7.724;2023-09-08T13:31:10;6.30;;;4.60;;
34928;SDS011;21133;48.048;7.724;2023-09-08T13:33:36;7.60;;;3.50;;
34928;SDS011;21133;48.048;7.724;2023-09-08T13:36:02;8.70;;;4.10;;
34928;SDS011;21133;48.048;7.724;2023-09-08T13:38:27;11.10;;;4.40;;
34928;SDS011;21133;48.048;7.724;2023-09-08T13:40:53;4.67;;;4.30;;
34928;SDS011;21133;48.048;7.724;2023-09-08T13:43:19;6.93;;;4.03;;
34928;SDS011;21133;48.048;7.724;2023-09-08T13:45:46;4.70;;;4.40;;
34928;SDS011;21133;48.048;7.724;2023-09-08T13:48:12;10.73;;;4.10;;
34928;SDS011;21133;48.048;7.724;2023-09-08T13:50:38;5.23;;;4.63;;
34928;SDS011;21133;48.048;7.724;2023-09-08T13:53:05;3.83;;;3.63;;
34928;SDS011;21133;48.048;7.724;2023-09-08T13:55:31;4.50;;;4.23;;
34928;SDS011;21133;48.048;7.724;2023-09-08T13:57:57;4.37;;;3.90;;
34928;SDS011;21133;48.048;7.724;2023-09-08T14:00:23;11.83;;;3.40;;
34928;SDS011;21133;48.048;7.724;2023-09-08T14:02:49;4.17;;;3.87;;
34928;SDS011;21133;48.048;7.724;2023-09-08T14:05:15;3.53;;;3.43;;
34928;SDS011;21133;48.048;7.724;2023-09-08T14:07:41;3.77;;;3.57;;
34928;SDS011;21133;48.048;7.724;2023-09-08T14:10:07;4.43;;;4.07;;
34928;SDS011;21133;48.048;7.724;2023-09-08T14:12:34;3.10;;;2.97;;
34928;SDS011;21133;48.048;7.724;2023-09-08T14:15:00;4.70;;;3.87;;
34928;SDS011;21133;48.048;7.724;2023-09-08T14:17:26;4.77;;;3.50;;
34928;SDS011;21133;48.048;7.724;2023-09-08T14:19:52;4.23;;;3.90;;
34928;SDS011;21133;48.048;7.724;2023-09-08T14:25:21;7.90;;;3.90;;
34928;SDS011;21133;48.048;7.724;2023-09-08T14:27:47;6.20;;;2.90;;
34928;SDS011;21133;48.048;7.724;2023-09-08T14:30:13;4.47;;;4.17;;
34928;SDS011;21133;48.048;7.724;2023-09-08T14:32:39;6.33;;;2.90;;
34928;SDS011;21133;48.048;7.724;2023-09-08T14:35:05;10.97;;;4.23;;
34928;SDS011;21133;48.048;7.724;2023-09-08T14:37:32;5.70;;;5.20;;
34928;SDS011;21133;48.048;7.724;2023-09-08T14:39:58;3.43;;;3.23;;
34928;SDS011;21133;48.048;7.724;2023-09-08T14:42:24;3.10;;;3.00;;
34928;SDS011;21133;48.048;7.724;2023-09-08T14:44:50;6.90;;;3.50;;
34928;SDS011;21133;48.048;7.724;2023-09-08T14:47:17;3.53;;;3.43;;
34928;SDS011;21133;48.048;7.724;2023-09-08T14:49:43;6.13;;;3.60;;
34928;SDS011;21133;48.048;7.724;2023-09-08T14:52:09;4.20;;;3.90;;
34928;SDS011;21133;48.048;7.724;2023-09-08T14:54:35;3.50;;;3.20;;